createdAt,value
2023-01-13T00:00:35.679Z,8.41
2023-01-13T00:01:35.582Z,8.41
2023-01-13T00:02:35.609Z,8.41
2023-01-13T00:03:35.576Z,8.41
2023-01-13T00:04:35.612Z,8.41
2023-01-13T00:05:35.587Z,8.44
2023-01-13T00:06:35.541Z,8.44
2023-01-13T00:07:35.538Z,8.43
2023-01-13T00:08:35.510Z,8.44
2023-01-13T00:09:35.514Z,8.43
2023-01-13T00:10:35.519Z,8.44
2023-01-13T00:11:35.478Z,8.41
2023-01-13T00:12:35.477Z,8.43
2023-01-13T00:13:35.575Z,8.41
2023-01-13T00:14:35.440Z,8.41
2023-01-13T00:15:35.478Z,8.43
2023-01-13T00:16:35.421Z,8.41
2023-01-13T00:17:35.412Z,8.40
2023-01-13T00:18:35.415Z,8.41
2023-01-13T00:19:35.390Z,8.43
2023-01-13T00:20:35.398Z,8.43
2023-01-13T00:21:35.397Z,8.43
2023-01-13T00:22:35.383Z,8.44
2023-01-13T00:23:35.355Z,8.43
2023-01-13T00:24:35.332Z,8.44
2023-01-13T00:25:35.352Z,8.44
2023-01-13T00:26:35.309Z,8.44
2023-01-13T00:27:35.294Z,8.43
2023-01-13T00:28:35.292Z,8.44
2023-01-13T00:29:35.308Z,8.43
2023-01-13T00:30:35.260Z,8.44
2023-01-13T00:31:35.347Z,8.44
2023-01-13T00:32:35.326Z,8.43
2023-01-13T00:33:35.237Z,8.44
2023-01-13T00:34:35.538Z,8.43
2023-01-13T00:35:35.209Z,8.45
2023-01-13T00:36:35.209Z,8.44
2023-01-13T00:37:35.259Z,8.45
2023-01-13T00:38:35.252Z,8.45
2023-01-13T00:39:35.169Z,8.45
2023-01-13T00:40:35.695Z,8.44
2023-01-13T00:41:35.391Z,8.45
2023-01-13T00:42:35.158Z,8.43
2023-01-13T00:43:35.125Z,8.44
2023-01-13T00:44:35.609Z,8.45
2023-01-13T00:45:35.143Z,8.45
2023-01-13T00:46:35.117Z,8.45
2023-01-13T00:47:35.082Z,8.47
2023-01-13T00:48:35.100Z,8.47
2023-01-13T00:49:35.066Z,8.47
2023-01-13T00:50:35.048Z,8.48
2023-01-13T00:51:35.029Z,8.47
2023-01-13T00:52:35.018Z,8.47
2023-01-13T00:53:35.084Z,8.47
2023-01-13T00:54:35.038Z,8.47
2023-01-13T00:55:35.000Z,8.48
2023-01-13T00:56:40.241Z,8.47
2023-01-13T00:57:35.967Z,8.47
2023-01-13T00:58:34.983Z,8.48
2023-01-13T00:59:34.993Z,8.47
2023-01-13T01:00:35.035Z,8.48
2023-01-13T01:01:35.062Z,8.50
2023-01-13T01:02:35.030Z,8.48
2023-01-13T01:03:34.886Z,8.48
2023-01-13T01:04:34.949Z,8.48
2023-01-13T01:05:34.893Z,8.48
2023-01-13T01:06:34.875Z,8.50
2023-01-13T01:07:34.849Z,8.50
2023-01-13T01:08:34.849Z,8.48
2023-01-13T01:09:34.829Z,8.52
2023-01-13T01:10:34.826Z,8.50
2023-01-13T01:11:34.805Z,8.50
2023-01-13T01:12:34.789Z,8.50
2023-01-13T01:13:34.779Z,8.52
2023-01-13T01:14:34.786Z,8.52
2023-01-13T01:15:34.758Z,8.52
2023-01-13T01:16:34.890Z,8.52
2023-01-13T01:17:34.756Z,8.53
2023-01-13T01:18:34.726Z,8.53
2023-01-13T01:19:34.707Z,8.53
2023-01-13T01:20:34.699Z,8.53
2023-01-13T01:21:34.733Z,8.53
2023-01-13T01:22:34.709Z,8.53
2023-01-13T01:23:34.668Z,8.53
2023-01-13T01:24:34.670Z,8.53
2023-01-13T01:25:34.667Z,8.53
2023-01-13T01:26:34.641Z,8.53
2023-01-13T01:27:34.621Z,8.52
2023-01-13T01:28:34.633Z,8.50
2023-01-13T01:29:34.598Z,8.52
2023-01-13T01:30:34.598Z,8.53
2023-01-13T01:31:34.579Z,8.52
2023-01-13T01:32:34.581Z,8.52
2023-01-13T01:33:34.630Z,8.53
2023-01-13T01:34:34.547Z,8.52
2023-01-13T01:35:34.578Z,8.52
2023-01-13T01:36:34.523Z,8.52
2023-01-13T01:37:34.547Z,8.52
2023-01-13T01:38:34.507Z,8.52
2023-01-13T01:39:34.486Z,8.52
2023-01-13T01:40:34.466Z,8.53
2023-01-13T01:41:34.574Z,8.53
2023-01-13T01:42:34.456Z,8.56
2023-01-13T01:43:34.476Z,8.55
2023-01-13T01:44:34.467Z,8.56
2023-01-13T01:45:34.428Z,8.56
2023-01-13T01:46:34.460Z,8.56
2023-01-13T01:47:34.396Z,8.55
2023-01-13T01:48:34.386Z,8.55
2023-01-13T01:49:34.377Z,8.56
2023-01-13T01:50:34.374Z,8.58
2023-01-13T01:51:34.356Z,8.62
2023-01-13T01:52:34.356Z,8.61
2023-01-13T01:53:34.326Z,8.52
2023-01-13T01:54:34.313Z,8.40
2023-01-13T01:55:34.311Z,8.25
2023-01-13T01:56:34.315Z,8.12
2023-01-13T01:57:34.275Z,8.01
2023-01-13T01:58:34.274Z,7.93
2023-01-13T01:59:34.284Z,7.86
2023-01-13T02:00:34.297Z,7.80
2023-01-13T02:01:34.294Z,7.75
2023-01-13T02:02:34.320Z,7.68
2023-01-13T02:03:34.219Z,7.63
2023-01-13T02:04:34.222Z,7.57
2023-01-13T02:05:34.213Z,7.52
2023-01-13T02:06:34.175Z,7.49
2023-01-13T02:07:34.177Z,7.46
2023-01-13T02:08:34.155Z,7.40
2023-01-13T02:09:34.159Z,7.32
2023-01-13T02:10:34.181Z,7.27
2023-01-13T02:11:34.115Z,7.24
2023-01-13T02:12:34.163Z,7.17
2023-01-13T02:13:34.104Z,7.12
2023-01-13T02:14:34.095Z,7.06
2023-01-13T02:15:34.093Z,7.05
2023-01-13T02:16:34.132Z,6.97
2023-01-13T02:17:34.054Z,6.97
2023-01-13T02:18:34.065Z,6.94
2023-01-13T02:19:34.053Z,6.91
2023-01-13T02:20:34.023Z,6.85
2023-01-13T02:21:34.013Z,6.87
2023-01-13T02:22:34.270Z,6.84
2023-01-13T02:23:33.997Z,6.81
2023-01-13T02:24:33.982Z,6.80
2023-01-13T02:25:33.966Z,6.79
2023-01-13T02:26:33.961Z,6.79
2023-01-13T02:27:33.964Z,6.76
2023-01-13T02:28:33.944Z,6.76
2023-01-13T02:29:33.926Z,6.76
2023-01-13T02:30:33.943Z,6.74
2023-01-13T02:31:33.978Z,6.74
2023-01-13T02:32:33.916Z,6.73
2023-01-13T02:33:33.882Z,6.73
2023-01-13T02:34:33.864Z,6.74
2023-01-13T02:35:33.868Z,6.76
2023-01-13T02:36:33.831Z,6.76
2023-01-13T02:37:33.820Z,6.77
2023-01-13T02:38:34.023Z,6.77
2023-01-13T02:39:33.813Z,6.79
2023-01-13T02:40:33.797Z,6.79
2023-01-13T02:41:33.807Z,6.77
2023-01-13T02:42:33.793Z,6.80
2023-01-13T02:43:33.772Z,6.79
2023-01-13T02:44:33.779Z,6.80
2023-01-13T02:45:33.773Z,6.80
2023-01-13T02:46:33.746Z,6.81
2023-01-13T02:47:33.733Z,6.84
2023-01-13T02:48:33.714Z,6.84
2023-01-13T02:49:33.709Z,6.85
2023-01-13T02:50:33.707Z,6.88
2023-01-13T02:51:33.665Z,6.88
2023-01-13T02:52:33.668Z,6.91
2023-01-13T02:53:33.659Z,6.89
2023-01-13T02:54:33.646Z,6.89
2023-01-13T02:55:33.621Z,6.89
2023-01-13T02:56:33.618Z,6.89
2023-01-13T02:57:33.592Z,6.91
2023-01-13T02:58:33.593Z,6.92
2023-01-13T02:59:33.626Z,6.92
2023-01-13T03:00:33.618Z,6.92
2023-01-13T03:01:33.755Z,6.92
2023-01-13T03:02:33.615Z,6.92
2023-01-13T03:03:33.587Z,6.92
2023-01-13T03:04:33.527Z,6.91
2023-01-13T03:05:33.545Z,6.91
2023-01-13T03:06:33.525Z,6.92
2023-01-13T03:07:33.513Z,6.92
2023-01-13T03:08:33.494Z,6.92
2023-01-13T03:09:33.494Z,6.92
2023-01-13T03:10:33.488Z,6.92
2023-01-13T03:11:33.491Z,6.91
2023-01-13T03:12:33.489Z,6.92
2023-01-13T03:13:33.454Z,6.92
2023-01-13T03:14:33.412Z,6.91
2023-01-13T03:15:33.427Z,6.89
2023-01-13T03:16:33.500Z,6.89
2023-01-13T03:17:33.442Z,6.89
2023-01-13T03:18:33.387Z,6.89
2023-01-13T03:19:33.394Z,6.88
2023-01-13T03:20:33.374Z,6.88
2023-01-13T03:21:33.359Z,6.88
2023-01-13T03:22:33.345Z,6.88
2023-01-13T03:23:33.751Z,6.89
2023-01-13T03:24:33.324Z,6.87
2023-01-13T03:25:33.316Z,6.87
2023-01-13T03:26:33.292Z,6.85
2023-01-13T03:27:33.303Z,6.87
2023-01-13T03:28:33.258Z,6.85
2023-01-13T03:29:33.263Z,6.87
2023-01-13T03:30:33.286Z,6.87
2023-01-13T03:31:33.254Z,6.87
2023-01-13T03:32:33.218Z,6.85
2023-01-13T03:33:33.232Z,6.87
2023-01-13T03:34:33.194Z,6.88
2023-01-13T03:35:33.218Z,6.87
2023-01-13T03:36:33.171Z,6.88
2023-01-13T03:37:33.175Z,6.85
2023-01-13T03:38:33.173Z,6.85
2023-01-13T03:39:33.175Z,6.85
2023-01-13T03:40:33.121Z,6.85
2023-01-13T03:41:33.151Z,6.87
2023-01-13T03:42:33.095Z,6.85
2023-01-13T03:43:33.112Z,6.84
2023-01-13T03:44:33.368Z,6.84
2023-01-13T03:45:33.093Z,6.84
2023-01-13T03:46:33.059Z,6.84
2023-01-13T03:47:33.077Z,6.84
2023-01-13T03:48:33.028Z,6.80
2023-01-13T03:49:33.100Z,6.77
2023-01-13T03:50:33.062Z,6.76
2023-01-13T03:51:33.076Z,6.73
2023-01-13T03:52:32.984Z,6.73
2023-01-13T03:53:32.983Z,6.71
2023-01-13T03:54:32.942Z,6.71
2023-01-13T03:55:33.000Z,6.71
2023-01-13T03:56:32.930Z,6.70
2023-01-13T03:57:32.942Z,6.70
2023-01-13T03:58:32.943Z,6.70
2023-01-13T03:59:32.924Z,6.70
2023-01-13T04:00:32.931Z,6.69
2023-01-13T04:01:33.214Z,6.70
2023-01-13T04:02:32.871Z,6.71
2023-01-13T04:03:32.930Z,6.71
2023-01-13T04:04:32.851Z,6.73
2023-01-13T04:05:32.880Z,6.71
2023-01-13T04:06:32.821Z,6.74
2023-01-13T04:07:32.928Z,6.74
2023-01-13T04:08:32.826Z,6.74
2023-01-13T04:09:32.833Z,6.77
2023-01-13T04:10:32.771Z,6.76
2023-01-13T04:11:32.792Z,6.76
2023-01-13T04:12:32.762Z,6.77
2023-01-13T04:13:32.785Z,6.74
2023-01-13T04:14:32.732Z,6.73
2023-01-13T04:15:32.798Z,6.70
2023-01-13T04:16:32.691Z,6.69
2023-01-13T04:17:32.721Z,6.69
2023-01-13T04:18:32.681Z,6.66
2023-01-13T04:19:32.691Z,6.64
2023-01-13T04:20:32.713Z,6.66
2023-01-13T04:21:32.635Z,6.66
2023-01-13T04:22:32.678Z,6.66
2023-01-13T04:23:32.644Z,6.66
2023-01-13T04:24:32.630Z,6.66
2023-01-13T04:25:32.731Z,6.66
2023-01-13T04:26:32.621Z,6.64
2023-01-13T04:27:32.570Z,6.66
2023-01-13T04:28:32.601Z,6.62
2023-01-13T04:29:32.561Z,6.62
2023-01-13T04:30:32.562Z,6.61
2023-01-13T04:31:32.519Z,6.59
2023-01-13T04:32:32.558Z,6.59
2023-01-13T04:33:32.509Z,6.64
2023-01-13T04:34:32.565Z,6.62
2023-01-13T04:35:32.522Z,6.61
2023-01-13T04:36:32.496Z,6.62
2023-01-13T04:37:32.486Z,6.62
2023-01-13T04:38:32.490Z,6.64
2023-01-13T04:39:32.437Z,6.64
2023-01-13T04:40:32.469Z,6.64
2023-01-13T04:41:32.429Z,6.64
2023-01-13T04:42:32.429Z,6.62
2023-01-13T04:43:32.388Z,6.64
2023-01-13T04:44:32.410Z,6.64
2023-01-13T04:45:32.578Z,6.62
2023-01-13T04:46:32.457Z,6.62
2023-01-13T04:47:32.338Z,6.59
2023-01-13T04:48:32.353Z,6.58
2023-01-13T04:49:32.326Z,6.56
2023-01-13T04:50:32.342Z,6.54
2023-01-13T04:51:32.334Z,6.52
2023-01-13T04:52:32.305Z,6.51
2023-01-13T04:53:32.278Z,6.46
2023-01-13T04:54:33.915Z,6.46
2023-01-13T04:55:32.282Z,6.43
2023-01-13T04:56:32.259Z,6.38
2023-01-13T04:57:32.220Z,6.37
2023-01-13T04:58:32.227Z,6.34
2023-01-13T04:59:34.492Z,6.34
2023-01-13T05:00:32.221Z,6.33
2023-01-13T05:01:32.270Z,6.31
2023-01-13T05:02:32.204Z,6.30
2023-01-13T05:03:32.164Z,6.30
2023-01-13T05:04:32.230Z,6.28
2023-01-13T05:05:32.324Z,6.30
2023-01-13T05:06:32.308Z,6.30
2023-01-13T05:07:32.116Z,6.30
2023-01-13T05:08:32.132Z,6.30
2023-01-13T05:09:32.099Z,6.30
2023-01-13T05:10:32.111Z,6.28
2023-01-13T05:11:32.096Z,6.22
2023-01-13T05:12:32.073Z,6.19
2023-01-13T05:13:32.041Z,6.19
2023-01-13T05:14:32.049Z,6.18
2023-01-13T05:15:32.019Z,6.15
2023-01-13T05:16:32.057Z,6.14
2023-01-13T05:17:32.006Z,6.11
2023-01-13T05:18:32.021Z,6.09
2023-01-13T05:19:31.969Z,6.11
2023-01-13T05:20:32.016Z,6.11
2023-01-13T05:21:31.955Z,6.11
2023-01-13T05:22:32.017Z,6.12
2023-01-13T05:23:31.984Z,6.12
2023-01-13T05:24:31.967Z,6.11
2023-01-13T05:25:31.902Z,6.09
2023-01-13T05:26:31.910Z,6.08
2023-01-13T05:27:31.875Z,6.06
2023-01-13T05:28:31.942Z,6.06
2023-01-13T05:29:31.891Z,6.06
2023-01-13T05:30:31.888Z,6.04
2023-01-13T05:31:31.890Z,6.06
2023-01-13T05:32:31.883Z,6.04
2023-01-13T05:33:33.133Z,6.04
2023-01-13T05:34:31.820Z,6.06
2023-01-13T05:35:31.911Z,6.04
2023-01-13T05:36:31.817Z,6.03
2023-01-13T05:37:31.812Z,6.00
2023-01-13T05:38:31.764Z,5.99
2023-01-13T05:39:31.883Z,5.97
2023-01-13T05:40:31.818Z,5.93
2023-01-13T05:41:31.743Z,5.89
2023-01-13T05:42:31.734Z,5.85
2023-01-13T05:43:31.697Z,5.81
2023-01-13T05:44:31.712Z,5.78
2023-01-13T05:45:31.712Z,5.71
2023-01-13T05:46:32.333Z,5.67
2023-01-13T05:47:31.639Z,5.63
2023-01-13T05:48:31.690Z,5.58
2023-01-13T05:49:31.643Z,5.56
2023-01-13T05:50:31.685Z,5.51
2023-01-13T05:51:31.610Z,5.48
2023-01-13T05:52:31.655Z,5.43
2023-01-13T05:53:31.607Z,5.40
2023-01-13T05:54:31.615Z,5.35
2023-01-13T05:55:31.620Z,5.35
2023-01-13T05:56:31.647Z,5.33
2023-01-13T05:57:31.575Z,5.33
2023-01-13T05:58:31.552Z,5.31
2023-01-13T05:59:31.555Z,5.31
2023-01-13T06:00:31.513Z,5.33
2023-01-13T06:01:31.531Z,5.33
2023-01-13T06:02:31.566Z,5.35
2023-01-13T06:03:31.460Z,5.36
2023-01-13T06:04:31.563Z,5.38
2023-01-13T06:05:31.426Z,5.38
2023-01-13T06:06:31.466Z,5.36
2023-01-13T06:07:31.778Z,5.36
2023-01-13T06:08:31.530Z,5.38
2023-01-13T06:09:31.405Z,5.35
2023-01-13T06:10:31.434Z,5.35
2023-01-13T06:11:31.428Z,5.35
2023-01-13T06:12:31.425Z,5.35
2023-01-13T06:13:31.393Z,5.35
2023-01-13T06:14:31.376Z,5.36
2023-01-13T06:15:31.383Z,5.36
2023-01-13T06:16:31.390Z,5.38
2023-01-13T06:17:31.352Z,5.36
2023-01-13T06:18:31.406Z,5.39
2023-01-13T06:19:31.321Z,5.36
2023-01-13T06:20:31.330Z,5.36
2023-01-13T06:21:33.124Z,5.35
2023-01-13T06:22:31.287Z,5.35
2023-01-13T06:23:31.243Z,5.35
2023-01-13T06:24:31.354Z,5.36
2023-01-13T06:25:31.310Z,5.38
2023-01-13T06:26:31.254Z,5.39
2023-01-13T06:27:31.293Z,5.42
2023-01-13T06:28:31.253Z,5.42
2023-01-13T06:29:31.174Z,5.43
2023-01-13T06:30:31.191Z,5.45
2023-01-13T06:31:31.170Z,5.46
2023-01-13T06:32:31.176Z,5.48
2023-01-13T06:33:31.149Z,5.48
2023-01-13T06:34:31.163Z,5.49
2023-01-13T06:35:31.123Z,5.51
2023-01-13T06:36:31.128Z,5.54
2023-01-13T06:37:31.054Z,5.51
2023-01-13T06:38:31.163Z,5.51
2023-01-13T06:39:31.081Z,5.49
2023-01-13T06:40:31.184Z,5.48
2023-01-13T06:41:31.044Z,5.46
2023-01-13T06:42:31.074Z,5.43
2023-01-13T06:43:31.033Z,5.42
2023-01-13T06:44:31.092Z,5.42
2023-01-13T06:45:30.982Z,5.40
2023-01-13T06:46:31.023Z,5.40
2023-01-13T06:47:31.151Z,5.42
2023-01-13T06:48:31.249Z,5.42
2023-01-13T06:49:30.942Z,5.40
2023-01-13T06:50:30.943Z,5.40
2023-01-13T06:51:31.032Z,5.42
2023-01-13T06:52:30.940Z,5.42
2023-01-13T06:53:30.922Z,5.43
2023-01-13T06:54:30.935Z,5.42
2023-01-13T06:55:30.871Z,5.42
2023-01-13T06:56:30.948Z,5.40
2023-01-13T06:57:30.900Z,5.36
2023-01-13T06:58:30.951Z,5.36
2023-01-13T06:59:30.871Z,5.35
2023-01-13T07:00:30.986Z,5.33
2023-01-13T07:01:30.899Z,5.30
2023-01-13T07:02:30.848Z,5.27
2023-01-13T07:03:30.924Z,5.25
2023-01-13T07:04:30.839Z,5.27
2023-01-13T07:05:30.760Z,5.28
2023-01-13T07:06:30.821Z,5.28
2023-01-13T07:07:30.780Z,5.27
2023-01-13T07:08:30.887Z,5.27
2023-01-13T07:09:30.805Z,5.25
2023-01-13T07:10:30.719Z,5.24
2023-01-13T07:11:30.688Z,5.22
2023-01-13T07:12:30.739Z,5.20
2023-01-13T07:13:30.679Z,5.18
2023-01-13T07:14:30.698Z,5.18
2023-01-13T07:15:30.722Z,5.18
2023-01-13T07:16:30.728Z,5.20
2023-01-13T07:17:30.651Z,5.20
2023-01-13T07:18:30.649Z,5.18
2023-01-13T07:19:30.638Z,5.17
2023-01-13T07:20:30.691Z,5.13
2023-01-13T07:21:30.667Z,5.12
2023-01-13T07:22:30.605Z,5.09
2023-01-13T07:23:30.663Z,5.09
2023-01-13T07:24:30.716Z,5.10
2023-01-13T07:25:30.567Z,5.13
2023-01-13T07:26:30.585Z,5.12
2023-01-13T07:27:30.514Z,5.15
2023-01-13T07:28:31.069Z,5.15
2023-01-13T07:29:30.529Z,5.15
2023-01-13T07:30:30.543Z,5.13
2023-01-13T07:31:30.525Z,5.17
2023-01-13T07:32:30.499Z,5.17
2023-01-13T07:33:30.450Z,5.21
2023-01-13T07:34:30.485Z,5.18
2023-01-13T07:35:30.448Z,5.18
2023-01-13T07:36:30.438Z,5.17
2023-01-13T07:37:30.440Z,5.17
2023-01-13T07:38:30.432Z,5.18
2023-01-13T07:39:30.382Z,5.13
2023-01-13T07:40:30.785Z,5.15
2023-01-13T07:41:30.358Z,5.15
2023-01-13T07:42:30.744Z,5.17
2023-01-13T07:43:30.367Z,5.17
2023-01-13T07:44:30.408Z,5.15
2023-01-13T07:45:30.372Z,5.17
2023-01-13T07:46:30.325Z,5.15
2023-01-13T07:47:30.296Z,5.13
2023-01-13T07:48:30.311Z,5.13
2023-01-13T07:49:30.264Z,5.15
2023-01-13T07:50:30.293Z,5.20
2023-01-13T07:51:30.251Z,5.22
2023-01-13T07:52:30.267Z,5.27
2023-01-13T07:53:30.278Z,5.28
2023-01-13T07:54:40.195Z,5.31
2023-01-13T07:55:31.201Z,5.36
2023-01-13T07:56:30.220Z,5.38
2023-01-13T07:57:30.197Z,5.39
2023-01-13T07:58:30.257Z,5.39
2023-01-13T07:59:30.159Z,5.42
2023-01-13T08:00:30.166Z,5.45
2023-01-13T08:01:30.255Z,5.45
2023-01-13T08:02:30.345Z,5.43
2023-01-13T08:03:30.155Z,5.40
2023-01-13T08:04:30.149Z,5.40
2023-01-13T08:05:30.084Z,5.40
2023-01-13T08:06:30.095Z,5.43
2023-01-13T08:07:30.090Z,5.48
2023-01-13T08:08:30.108Z,5.48
2023-01-13T08:09:30.292Z,5.48
2023-01-13T08:10:30.330Z,5.51
2023-01-13T08:11:30.037Z,5.56
2023-01-13T08:12:30.040Z,5.58
2023-01-13T08:13:30.036Z,5.61
2023-01-13T08:14:30.029Z,5.64
2023-01-13T08:15:29.985Z,5.67
2023-01-13T08:16:30.091Z,5.71
2023-01-13T08:17:29.975Z,5.74
2023-01-13T08:18:29.970Z,5.81
2023-01-13T08:19:29.982Z,5.89
2023-01-13T08:20:30.266Z,5.93
2023-01-13T08:21:30.276Z,6.00
2023-01-13T08:22:29.933Z,6.09
2023-01-13T08:23:29.913Z,6.17
2023-01-13T08:24:29.944Z,6.27
2023-01-13T08:25:29.899Z,6.31
2023-01-13T08:26:29.885Z,6.34
2023-01-13T08:27:29.858Z,6.36
2023-01-13T08:28:29.875Z,6.36
2023-01-13T08:29:29.819Z,6.38
2023-01-13T08:30:29.931Z,6.40
2023-01-13T08:31:29.942Z,6.40
2023-01-13T08:32:29.807Z,6.38
2023-01-13T08:33:29.782Z,6.38
2023-01-13T08:34:29.869Z,6.38
2023-01-13T08:35:29.770Z,6.37
2023-01-13T08:36:30.067Z,6.33
2023-01-13T08:37:30.086Z,6.30
2023-01-13T08:38:29.979Z,6.30
2023-01-13T08:39:29.797Z,6.28
2023-01-13T08:40:29.804Z,6.28
2023-01-13T08:41:29.723Z,6.28
2023-01-13T08:42:29.706Z,6.28
2023-01-13T08:43:29.918Z,6.22
2023-01-13T08:44:29.741Z,6.25
2023-01-13T08:45:30.346Z,6.22
2023-01-13T08:46:29.745Z,6.18
2023-01-13T08:47:29.746Z,6.18
2023-01-13T08:48:31.432Z,6.17
2023-01-13T08:49:29.614Z,6.17
2023-01-13T08:50:29.757Z,6.19
2023-01-13T08:51:29.665Z,6.22
2023-01-13T08:52:29.570Z,6.25
2023-01-13T08:53:29.565Z,6.25
2023-01-13T08:54:29.543Z,6.30
2023-01-13T08:55:29.536Z,6.27
2023-01-13T08:56:29.524Z,6.22
2023-01-13T08:57:29.573Z,6.27
2023-01-13T08:58:29.505Z,6.33
2023-01-13T08:59:29.553Z,6.37
2023-01-13T09:00:29.462Z,6.40
2023-01-13T09:01:29.559Z,6.40
2023-01-13T09:02:29.497Z,6.41
2023-01-13T09:03:29.467Z,6.46
2023-01-13T09:04:29.636Z,6.49
2023-01-13T09:05:29.441Z,6.51
2023-01-13T09:06:29.403Z,6.54
2023-01-13T09:07:29.398Z,6.55
2023-01-13T09:08:29.372Z,6.61
2023-01-13T09:09:29.382Z,6.66
2023-01-13T09:10:29.353Z,6.69
2023-01-13T09:11:29.602Z,6.76
2023-01-13T09:12:29.336Z,6.85
2023-01-13T09:13:29.341Z,6.92
2023-01-13T09:14:29.319Z,7.03
2023-01-13T09:15:29.758Z,7.15
2023-01-13T09:16:29.275Z,7.24
2023-01-13T09:17:29.302Z,7.30
2023-01-13T09:18:29.249Z,7.35
2023-01-13T09:19:29.301Z,7.40
2023-01-13T09:20:29.232Z,7.45
2023-01-13T09:21:29.273Z,7.48
2023-01-13T09:22:29.226Z,7.46
2023-01-13T09:23:29.210Z,7.48
2023-01-13T09:24:29.190Z,7.45
2023-01-13T09:25:29.201Z,7.40
2023-01-13T09:26:29.171Z,7.39
2023-01-13T09:27:29.172Z,7.34
2023-01-13T09:28:29.142Z,7.28
2023-01-13T09:29:29.140Z,7.32
2023-01-13T09:30:29.129Z,7.34
2023-01-13T09:31:29.569Z,7.32
2023-01-13T09:32:29.640Z,7.32
2023-01-13T09:33:29.104Z,7.32
2023-01-13T09:34:29.181Z,7.31
2023-01-13T09:35:29.079Z,7.31
2023-01-13T09:36:29.061Z,7.31
2023-01-13T09:37:29.093Z,7.31
2023-01-13T09:38:29.027Z,7.32
2023-01-13T09:39:29.026Z,7.31
2023-01-13T09:40:29.004Z,7.31
2023-01-13T09:41:29.023Z,7.32
2023-01-13T09:42:28.999Z,7.32
2023-01-13T09:43:28.985Z,7.32
2023-01-13T09:44:28.986Z,7.32
2023-01-13T09:45:28.960Z,7.32
2023-01-13T09:46:28.951Z,7.32
2023-01-13T09:47:28.963Z,7.34
2023-01-13T09:48:28.931Z,7.37
2023-01-13T09:49:28.949Z,7.37
2023-01-13T09:50:28.896Z,7.43
2023-01-13T09:51:29.284Z,7.45
2023-01-13T09:52:28.900Z,7.48
2023-01-13T09:53:28.902Z,7.60
2023-01-13T09:54:28.870Z,7.72
2023-01-13T09:55:28.868Z,7.82
2023-01-13T09:56:28.864Z,7.86
2023-01-13T09:57:28.879Z,7.82
2023-01-13T09:58:28.810Z,7.87
2023-01-13T09:59:28.842Z,7.97
2023-01-13T10:00:28.784Z,7.90
2023-01-13T10:01:28.833Z,7.92
2023-01-13T10:02:28.754Z,7.92
2023-01-13T10:03:28.827Z,7.98
2023-01-13T10:04:28.808Z,7.93
2023-01-13T10:05:28.740Z,7.92
2023-01-13T10:06:28.721Z,7.86
2023-01-13T10:07:28.737Z,7.85
2023-01-13T10:08:28.678Z,7.80
2023-01-13T10:09:28.753Z,7.79
2023-01-13T10:10:28.672Z,7.82
2023-01-13T10:11:28.680Z,7.85
2023-01-13T10:12:29.400Z,7.86
2023-01-13T10:13:29.429Z,7.87
2023-01-13T10:14:28.648Z,7.90
2023-01-13T10:15:29.237Z,7.90
2023-01-13T10:16:28.655Z,7.90
2023-01-13T10:17:28.614Z,7.87
2023-01-13T10:18:28.572Z,7.87
2023-01-13T10:19:28.602Z,7.89
2023-01-13T10:20:28.583Z,7.87
2023-01-13T10:21:28.569Z,7.87
2023-01-13T10:22:28.526Z,7.90
2023-01-13T10:23:28.549Z,7.90
2023-01-13T10:24:28.590Z,7.87
2023-01-13T10:25:28.529Z,7.90
2023-01-13T10:26:28.628Z,7.87
2023-01-13T10:27:28.561Z,7.83
2023-01-13T10:28:28.468Z,7.86
2023-01-13T10:29:28.480Z,7.85
2023-01-13T10:30:28.443Z,7.83
2023-01-13T10:31:28.520Z,7.85
2023-01-13T10:32:37.736Z,7.86
2023-01-13T10:33:28.493Z,7.87
2023-01-13T10:34:28.392Z,7.89
2023-01-13T10:35:28.409Z,7.90
2023-01-13T10:36:28.367Z,7.92
2023-01-13T10:37:28.417Z,7.93
2023-01-13T10:38:28.368Z,7.95
2023-01-13T10:39:28.369Z,7.93
2023-01-13T10:40:28.326Z,7.90
2023-01-13T10:41:28.442Z,7.89
2023-01-13T10:42:28.317Z,7.87
2023-01-13T10:43:28.333Z,7.87
2023-01-13T10:44:28.286Z,7.83
2023-01-13T10:45:28.329Z,7.82
2023-01-13T10:46:29.319Z,7.82
2023-01-13T10:47:28.284Z,7.79
2023-01-13T10:48:28.237Z,7.79
2023-01-13T10:49:28.256Z,7.75
2023-01-13T10:50:28.216Z,7.75
2023-01-13T10:51:28.270Z,7.75
2023-01-13T10:52:28.250Z,7.77
2023-01-13T10:53:28.457Z,7.77
2023-01-13T10:54:28.188Z,7.79
2023-01-13T10:55:28.208Z,7.82
2023-01-13T10:56:28.183Z,7.85
2023-01-13T10:57:28.188Z,7.85
2023-01-13T10:58:28.143Z,7.92
2023-01-13T10:59:28.181Z,7.93
2023-01-13T11:00:28.114Z,7.93
2023-01-13T11:01:28.415Z,8.00
2023-01-13T11:02:28.159Z,8.01
2023-01-13T11:03:28.098Z,8.02
2023-01-13T11:04:28.164Z,8.00
2023-01-13T11:05:28.082Z,8.05
2023-01-13T11:06:28.050Z,8.07
2023-01-13T11:07:28.473Z,8.08
2023-01-13T11:08:28.089Z,8.07
2023-01-13T11:09:28.117Z,8.05
2023-01-13T11:10:28.027Z,8.02
2023-01-13T11:11:28.028Z,8.00
2023-01-13T11:12:27.983Z,8.00
2023-01-13T11:13:27.995Z,8.01
2023-01-13T11:14:28.796Z,8.04
2023-01-13T11:15:27.999Z,8.05
2023-01-13T11:16:27.973Z,8.01
2023-01-13T11:17:27.950Z,8.04
2023-01-13T11:18:27.914Z,8.05
2023-01-13T11:19:27.906Z,8.08
2023-01-13T11:20:27.888Z,8.08
2023-01-13T11:21:27.928Z,8.10
2023-01-13T11:22:27.875Z,8.12
2023-01-13T11:23:27.865Z,8.15
2023-01-13T11:24:27.862Z,8.16
2023-01-13T11:25:27.861Z,8.16
2023-01-13T11:26:27.828Z,8.12
2023-01-13T11:27:27.839Z,8.12
2023-01-13T11:28:27.819Z,8.16
2023-01-13T11:29:27.804Z,8.15
2023-01-13T11:30:27.793Z,8.15
2023-01-13T11:31:27.923Z,8.16
2023-01-13T11:32:27.773Z,8.15
2023-01-13T11:33:27.778Z,8.15
2023-01-13T11:34:28.677Z,8.11
2023-01-13T11:35:27.766Z,8.12
2023-01-13T11:36:27.700Z,8.12
2023-01-13T11:37:27.723Z,8.15
2023-01-13T11:38:27.689Z,8.15
2023-01-13T11:39:27.709Z,8.12
2023-01-13T11:40:27.661Z,8.15
2023-01-13T11:41:27.709Z,8.15
2023-01-13T11:42:27.682Z,8.12
2023-01-13T11:43:27.766Z,8.11
2023-01-13T11:44:27.657Z,8.10
2023-01-13T11:45:27.646Z,8.07
2023-01-13T11:46:27.664Z,8.04
2023-01-13T11:47:27.616Z,8.02
2023-01-13T11:48:27.582Z,8.02
2023-01-13T11:49:27.606Z,8.04
2023-01-13T11:50:27.533Z,8.02
2023-01-13T11:51:27.544Z,8.01
2023-01-13T11:52:27.542Z,7.98
2023-01-13T11:53:27.546Z,7.90
2023-01-13T11:54:27.520Z,7.83
2023-01-13T11:55:27.536Z,7.82
2023-01-13T11:56:27.568Z,7.80
2023-01-13T11:57:27.576Z,7.75
2023-01-13T11:58:28.893Z,7.71
2023-01-13T11:59:27.552Z,7.71
2023-01-13T12:00:27.433Z,7.72
2023-01-13T12:01:27.509Z,7.74
2023-01-13T12:02:27.508Z,7.75
2023-01-13T12:03:27.492Z,7.79
2023-01-13T12:04:27.373Z,7.83
2023-01-13T12:05:27.412Z,7.86
2023-01-13T12:06:27.387Z,7.90
2023-01-13T12:07:27.383Z,7.97
2023-01-13T12:08:27.334Z,7.98
2023-01-13T12:09:27.368Z,8.00
2023-01-13T12:10:27.323Z,8.01
2023-01-13T12:11:27.340Z,8.01
2023-01-13T12:12:27.302Z,8.01
2023-01-13T12:13:27.357Z,8.00
2023-01-13T12:14:28.175Z,8.00
2023-01-13T12:15:27.303Z,8.00
2023-01-13T12:16:27.344Z,8.00
2023-01-13T12:17:27.288Z,8.01
2023-01-13T12:18:27.214Z,8.00
2023-01-13T12:19:27.264Z,8.01
2023-01-13T12:20:27.232Z,8.05
2023-01-13T12:21:27.269Z,8.12
2023-01-13T12:22:27.220Z,8.16
2023-01-13T12:23:27.229Z,8.18
2023-01-13T12:24:27.184Z,8.18
2023-01-13T12:25:27.199Z,8.16
2023-01-13T12:26:27.142Z,8.20
2023-01-13T12:27:27.180Z,8.22
2023-01-13T12:28:27.168Z,8.26
2023-01-13T12:29:27.162Z,8.29
2023-01-13T12:30:27.087Z,8.34
2023-01-13T12:31:27.162Z,8.40
2023-01-13T12:32:27.090Z,8.45
2023-01-13T12:33:27.101Z,8.47
2023-01-13T12:34:27.078Z,8.47
2023-01-13T12:35:27.071Z,8.50
2023-01-13T12:36:27.022Z,8.53
2023-01-13T12:37:27.041Z,8.56
2023-01-13T12:38:27.040Z,8.62
2023-01-13T12:39:27.020Z,8.61
2023-01-13T12:40:26.989Z,8.56
2023-01-13T12:41:27.087Z,8.47
2023-01-13T12:42:27.244Z,8.44
2023-01-13T12:43:26.993Z,8.41
2023-01-13T12:44:26.949Z,8.34
2023-01-13T12:45:26.982Z,8.30
2023-01-13T12:46:26.917Z,8.28
2023-01-13T12:47:27.042Z,8.25
2023-01-13T12:48:26.882Z,8.19
2023-01-13T12:49:26.913Z,8.15
2023-01-13T12:50:26.890Z,8.12
2023-01-13T12:51:26.929Z,8.12
2023-01-13T12:52:26.909Z,8.10
2023-01-13T12:53:26.829Z,8.10
2023-01-13T12:54:26.854Z,8.10
2023-01-13T12:55:26.832Z,8.08
2023-01-13T12:56:26.880Z,8.05
2023-01-13T12:57:26.793Z,8.01
2023-01-13T12:58:26.799Z,7.98
2023-01-13T12:59:26.760Z,7.85
2023-01-13T13:00:26.789Z,7.71
2023-01-13T13:01:26.881Z,7.50
2023-01-13T13:02:26.834Z,7.40
2023-01-13T13:03:26.700Z,7.30
2023-01-13T13:04:26.767Z,7.27
2023-01-13T13:05:26.722Z,7.24
2023-01-13T13:06:26.739Z,7.20
2023-01-13T13:07:26.679Z,7.15
2023-01-13T13:08:26.700Z,7.12
2023-01-13T13:09:26.658Z,7.09
2023-01-13T13:10:26.671Z,7.09
2023-01-13T13:11:26.645Z,7.07
2023-01-13T13:12:26.676Z,7.07
2023-01-13T13:13:26.611Z,7.07
2023-01-13T13:14:26.629Z,7.03
2023-01-13T13:15:26.609Z,7.03
2023-01-13T13:16:26.694Z,7.05
2023-01-13T13:17:26.569Z,7.05
2023-01-13T13:18:26.586Z,7.03